createdAt,value
2022-11-08T00:00:42.402Z,4.95
2022-11-08T00:03:09.897Z,4.94
2022-11-08T00:05:55.856Z,4.98
2022-11-08T00:08:41.874Z,5.03
2022-11-08T00:11:27.941Z,5.08
2022-11-08T00:13:58.614Z,5.04
2022-11-08T00:16:27.714Z,5.10
2022-11-08T00:18:54.963Z,5.00
2022-11-08T00:21:22.286Z,5.04
2022-11-08T00:23:49.597Z,4.97
2022-11-08T00:26:16.814Z,5.00
2022-11-08T00:28:44.076Z,4.98
2022-11-08T00:31:11.433Z,4.96
2022-11-08T00:33:38.680Z,4.94
2022-11-08T00:36:06.373Z,5.09
2022-11-08T00:38:33.683Z,5.21
2022-11-08T00:41:00.892Z,5.32
2022-11-08T00:43:28.175Z,5.21
2022-11-08T00:45:55.427Z,5.17
2022-11-08T00:48:22.742Z,5.25
2022-11-08T00:50:50.889Z,5.10
2022-11-08T00:53:18.166Z,5.11
2022-11-08T00:55:45.351Z,5.05
2022-11-08T00:58:12.756Z,5.17
2022-11-08T01:00:40.011Z,5.23
2022-11-08T01:03:19.338Z,5.35
2022-11-08T01:05:48.138Z,5.44
2022-11-08T01:08:16.884Z,5.56
2022-11-08T01:10:47.898Z,5.74
2022-11-08T01:13:15.770Z,5.83
2022-11-08T01:15:47.681Z,5.68
2022-11-08T01:18:17.812Z,5.63
2022-11-08T01:20:48.207Z,5.71
2022-11-08T01:23:16.675Z,5.69
2022-11-08T01:25:47.288Z,5.72
2022-11-08T01:28:15.329Z,5.59
2022-11-08T01:30:44.642Z,5.68
2022-11-08T01:33:14.235Z,5.59
2022-11-08T01:35:45.413Z,5.62
2022-11-08T01:38:12.810Z,5.62
2022-11-08T01:40:48.919Z,5.69
2022-11-08T01:43:31.306Z,5.69
2022-11-08T01:46:10.634Z,5.59
2022-11-08T01:48:45.526Z,5.44
2022-11-08T01:51:17.128Z,5.41
2022-11-08T01:53:45.806Z,5.21
2022-11-08T01:56:15.141Z,5.08
2022-11-08T01:58:46.531Z,5.03
2022-11-08T02:01:13.843Z,5.08
2022-11-08T02:03:41.812Z,5.01
2022-11-08T02:06:10.696Z,4.93
2022-11-08T02:08:42.353Z,4.81
2022-11-08T02:11:15.105Z,4.79
2022-11-08T02:13:42.556Z,4.84
2022-11-08T02:16:16.929Z,4.82
2022-11-08T02:18:46.111Z,4.84
2022-11-08T02:22:01.520Z,4.92
2022-11-08T02:24:29.011Z,4.94
2022-11-08T02:26:57.656Z,4.87
2022-11-08T02:29:35.679Z,4.93
2022-11-08T02:32:04.904Z,4.93
2022-11-08T02:34:54.891Z,4.86
2022-11-08T02:37:23.483Z,4.83
2022-11-08T02:39:50.787Z,4.77
2022-11-08T02:42:20.569Z,4.84
2022-11-08T02:44:48.196Z,4.91
2022-11-08T02:47:16.242Z,4.88
2022-11-08T02:49:43.560Z,4.86
2022-11-08T02:52:11.038Z,4.84
2022-11-08T02:54:38.636Z,5.00
2022-11-08T02:57:05.859Z,5.06
2022-11-08T02:59:33.104Z,5.02
2022-11-08T03:02:00.437Z,4.99
2022-11-08T03:04:27.928Z,4.91
2022-11-08T03:06:55.162Z,4.91
2022-11-08T03:09:22.409Z,4.89
2022-11-08T03:11:49.647Z,4.89
2022-11-08T03:14:17.037Z,4.82
2022-11-08T03:16:44.207Z,4.77
2022-11-08T03:19:12.320Z,4.65
2022-11-08T03:21:39.618Z,4.66
2022-11-08T03:24:07.629Z,4.84
2022-11-08T03:26:34.927Z,4.90
2022-11-08T03:29:02.125Z,4.88
2022-11-08T03:31:29.419Z,4.72
2022-11-08T03:33:56.645Z,4.84
2022-11-08T03:36:23.915Z,4.88
2022-11-08T03:38:51.176Z,4.96
2022-11-08T03:41:19.161Z,5.11
2022-11-08T03:43:46.376Z,5.13
2022-11-08T03:46:13.558Z,5.20
2022-11-08T03:48:40.824Z,5.15
2022-11-08T03:51:08.210Z,4.99
2022-11-08T03:53:35.560Z,5.00
2022-11-08T03:56:02.909Z,5.16
2022-11-08T03:58:30.176Z,5.16
2022-11-08T04:00:58.376Z,5.04
2022-11-08T04:03:25.719Z,4.98
2022-11-08T04:05:53.029Z,4.94
2022-11-08T04:08:20.578Z,4.84
2022-11-08T04:10:48.178Z,4.77
2022-11-08T04:13:34.111Z,4.74
2022-11-08T04:16:01.437Z,4.74
2022-11-08T04:18:47.376Z,4.71
2022-11-08T04:21:20.077Z,4.74
2022-11-08T04:23:50.334Z,4.73
2022-11-08T04:26:18.182Z,4.86
2022-11-08T04:28:45.538Z,4.96
2022-11-08T04:31:17.440Z,5.06
2022-11-08T04:33:45.202Z,5.05
2022-11-08T04:36:17.206Z,5.13
2022-11-08T04:38:48.563Z,5.33
2022-11-08T04:41:19.011Z,5.55
2022-11-08T04:43:47.057Z,5.63
2022-11-08T04:46:18.204Z,5.55
2022-11-08T04:48:45.969Z,5.53
2022-11-08T04:51:23.107Z,5.55
2022-11-08T04:53:50.612Z,5.43
2022-11-08T04:56:21.120Z,5.36
2022-11-08T04:58:52.217Z,5.49
2022-11-08T05:01:23.162Z,5.56
2022-11-08T05:03:52.454Z,5.58
2022-11-08T05:06:27.374Z,5.56
2022-11-08T05:08:56.388Z,5.63
2022-11-08T05:11:26.243Z,5.65
2022-11-08T05:13:53.824Z,5.64
2022-11-08T05:16:25.496Z,5.74
2022-11-08T05:18:52.715Z,5.69
2022-11-08T05:21:40.550Z,5.75
2022-11-08T05:24:11.682Z,5.70
2022-11-08T05:26:42.624Z,5.46
2022-11-08T05:29:10.967Z,5.39
2022-11-08T05:31:38.917Z,5.23
2022-11-08T05:34:07.447Z,5.27
2022-11-08T05:36:35.053Z,5.34
2022-11-08T05:39:02.763Z,5.30
2022-11-08T05:41:30.551Z,5.30
2022-11-08T05:43:58.207Z,5.30
2022-11-08T05:46:25.671Z,5.14
2022-11-08T05:48:54.297Z,5.16
2022-11-08T05:51:22.257Z,5.33
2022-11-08T05:53:49.533Z,5.49
2022-11-08T05:56:17.844Z,5.52
2022-11-08T05:58:45.738Z,5.55
2022-11-08T06:01:16.993Z,5.63
2022-11-08T06:03:44.646Z,5.70
2022-11-08T06:06:22.306Z,5.72
2022-11-08T06:08:52.192Z,5.77
2022-11-08T06:11:26.406Z,5.83
2022-11-08T06:13:55.069Z,6.09
2022-11-08T06:16:24.523Z,6.26
2022-11-08T06:18:52.071Z,6.29
2022-11-08T06:21:21.409Z,6.40
2022-11-08T06:23:52.609Z,6.52
2022-11-08T06:26:22.358Z,6.56
2022-11-08T06:28:50.127Z,6.66
2022-11-08T06:31:17.433Z,6.75
2022-11-08T06:33:45.413Z,6.82
2022-11-08T06:36:12.718Z,6.93
2022-11-08T06:38:39.939Z,7.02
2022-11-08T06:41:07.154Z,7.02
2022-11-08T06:43:34.395Z,7.13
2022-11-08T06:46:02.623Z,7.20
2022-11-08T06:48:35.429Z,7.30
2022-11-08T06:51:04.305Z,7.40
2022-11-08T06:53:32.188Z,7.52
2022-11-08T06:56:01.506Z,7.52
2022-11-08T06:58:29.931Z,7.70
2022-11-08T07:00:57.880Z,8.09
2022-11-08T07:03:26.360Z,8.82
2022-11-08T07:05:53.536Z,9.47
2022-11-08T07:08:24.007Z,10.12
2022-11-08T07:10:51.984Z,10.91
2022-11-08T07:13:19.725Z,11.73
2022-11-08T07:15:49.963Z,12.25
2022-11-08T07:18:19.848Z,12.87
2022-11-08T07:20:47.341Z,14.06
2022-11-08T07:23:14.979Z,15.39
2022-11-08T07:25:42.487Z,16.49
2022-11-08T07:28:18.847Z,17.32
2022-11-08T07:30:48.904Z,17.94
2022-11-08T07:33:17.036Z,19.01
2022-11-08T07:35:47.245Z,19.59
2022-11-08T07:38:14.612Z,20.22
2022-11-08T07:40:41.852Z,20.79
2022-11-08T07:43:12.321Z,21.12
2022-11-08T07:45:41.920Z,21.38
2022-11-08T07:48:13.706Z,21.91
2022-11-08T07:50:42.896Z,22.42
2022-11-08T07:53:10.769Z,21.90
2022-11-08T07:55:41.467Z,21.92
2022-11-08T07:58:10.889Z,21.54
2022-11-08T08:00:40.581Z,23.17
2022-11-08T08:03:10.777Z,22.79
2022-11-08T08:05:45.020Z,23.07
2022-11-08T08:08:13.952Z,23.35
2022-11-08T08:10:41.921Z,23.08
2022-11-08T08:13:09.730Z,22.93
2022-11-08T08:15:37.099Z,23.35
2022-11-08T08:18:07.509Z,23.86
2022-11-08T08:20:35.881Z,23.81
2022-11-08T08:23:03.130Z,23.64
2022-11-08T08:25:31.547Z,24.25
2022-11-08T08:28:01.159Z,24.77
2022-11-08T08:30:30.893Z,24.85
2022-11-08T08:33:32.178Z,24.49
2022-11-08T08:36:01.833Z,25.03
2022-11-08T08:38:30.943Z,25.16
2022-11-08T08:40:59.450Z,24.17
2022-11-08T08:43:32.603Z,24.65
2022-11-08T08:46:06.058Z,24.61
2022-11-08T08:48:33.924Z,24.59
2022-11-08T08:51:01.066Z,24.66
2022-11-08T08:53:28.353Z,24.55
2022-11-08T08:55:55.699Z,24.21
2022-11-08T08:58:23.208Z,25.71
2022-11-08T09:03:37.887Z,24.72
2022-11-08T09:06:05.202Z,25.80
2022-11-08T09:08:32.397Z,26.61
2022-11-08T09:11:01.869Z,28.27
2022-11-08T09:13:31.037Z,29.25
2022-11-08T09:16:01.430Z,29.64
2022-11-08T09:18:29.323Z,30.30
2022-11-08T09:20:58.143Z,30.55
2022-11-08T09:23:26.174Z,30.40
2022-11-08T09:26:01.708Z,30.36
2022-11-08T09:28:32.147Z,28.75
2022-11-08T09:31:05.885Z,29.80
2022-11-08T09:33:33.299Z,30.38
2022-11-08T09:36:03.637Z,30.88
2022-11-08T09:38:31.093Z,30.80
2022-11-08T09:41:36.923Z,29.78
2022-11-08T09:44:41.924Z,28.34
2022-11-08T09:47:24.288Z,26.82
2022-11-08T09:50:18.641Z,26.78
2022-11-08T09:53:15.178Z,25.71
2022-11-08T09:55:59.417Z,25.89
2022-11-08T09:58:49.030Z,25.47
2022-11-08T10:01:16.877Z,24.98
2022-11-08T10:03:52.231Z,24.85
2022-11-08T10:06:46.019Z,24.51
2022-11-08T10:09:41.129Z,24.24
2022-11-08T10:12:34.117Z,23.99
2022-11-08T10:15:01.263Z,24.02
2022-11-08T10:17:42.123Z,24.12
2022-11-08T10:20:27.026Z,24.01
2022-11-08T10:23:22.335Z,23.32
2022-11-08T10:26:16.760Z,22.79
2022-11-08T10:28:59.614Z,23.11
2022-11-08T10:31:33.112Z,23.91
2022-11-08T10:34:11.203Z,24.18
2022-11-08T10:36:44.150Z,25.39
2022-11-08T10:39:26.954Z,25.43
2022-11-08T10:42:45.384Z,25.37
2022-11-08T10:45:13.187Z,25.16
2022-11-08T10:47:41.735Z,26.21
2022-11-08T10:50:30.342Z,27.77
2022-11-08T10:53:02.995Z,29.35
2022-11-08T10:55:36.794Z,30.57
2022-11-08T10:58:24.983Z,30.64
2022-11-08T11:01:21.998Z,30.75
2022-11-08T11:03:52.255Z,30.35
2022-11-08T11:06:33.005Z,31.68
2022-11-08T11:09:19.878Z,32.28
2022-11-08T11:12:02.583Z,31.80
2022-11-08T11:14:29.831Z,31.69
2022-11-08T11:17:02.958Z,31.39
2022-11-08T11:19:31.323Z,31.23
2022-11-08T11:22:08.079Z,31.27
2022-11-08T11:24:37.139Z,31.54
2022-11-08T11:27:20.259Z,31.40
2022-11-08T11:29:47.560Z,30.30
2022-11-08T11:32:53.527Z,28.79
2022-11-08T11:35:21.417Z,28.44
2022-11-08T11:37:49.117Z,27.86
2022-11-08T11:40:47.165Z,28.00
2022-11-08T11:43:35.253Z,28.46
2022-11-08T11:46:41.619Z,27.66
2022-11-08T11:49:19.827Z,26.45
2022-11-08T11:51:47.200Z,26.50
2022-11-08T11:54:16.544Z,27.25
2022-11-08T11:57:08.796Z,27.06
2022-11-08T11:59:59.312Z,27.15
2022-11-08T12:03:15.885Z,26.96
2022-11-08T12:06:16.907Z,26.72
2022-11-08T12:09:14.198Z,26.46
2022-11-08T12:11:52.003Z,25.97
2022-11-08T12:14:52.707Z,26.19
2022-11-08T12:17:27.328Z,26.60
2022-11-08T12:20:15.108Z,25.81
2022-11-08T12:23:11.811Z,26.15
2022-11-08T12:26:27.415Z,25.90
2022-11-08T12:29:26.818Z,25.21
2022-11-08T12:32:27.093Z,25.14
2022-11-08T12:35:23.579Z,25.07
2022-11-08T12:38:05.785Z,24.43
2022-11-08T12:40:56.516Z,24.50
2022-11-08T12:44:16.414Z,23.25
2022-11-08T12:47:34.716Z,21.66
2022-11-08T12:50:49.983Z,20.60
2022-11-08T12:53:41.139Z,19.24
2022-11-08T12:56:22.178Z,18.49
2022-11-08T12:58:54.939Z,17.70
2022-11-08T13:01:23.653Z,17.57
2022-11-08T13:04:43.415Z,17.35
2022-11-08T13:07:42.791Z,16.97
2022-11-08T13:10:31.487Z,16.59
2022-11-08T13:13:32.061Z,16.54
2022-11-08T13:16:34.840Z,16.63
2022-11-08T13:19:05.860Z,16.34
2022-11-08T13:21:41.110Z,16.21
2022-11-08T13:24:37.961Z,15.97
2022-11-08T13:27:30.552Z,15.68
2022-11-08T13:30:24.167Z,15.42
2022-11-08T13:33:15.101Z,15.41
2022-11-08T13:36:19.409Z,15.42
2022-11-08T13:39:25.644Z,15.36
2022-11-08T13:42:26.150Z,15.15
2022-11-08T13:44:56.647Z,15.09
2022-11-08T13:47:37.060Z,15.01
2022-11-08T13:50:29.159Z,14.92
2022-11-08T13:53:25.720Z,14.78
2022-11-08T13:56:06.648Z,14.83
2022-11-08T13:58:46.191Z,14.67
2022-11-08T14:01:19.492Z,14.65
2022-11-08T14:03:46.867Z,14.55
2022-11-08T14:06:55.353Z,14.31
2022-11-08T14:09:33.222Z,14.24
2022-11-08T14:12:20.134Z,14.14
2022-11-08T14:15:12.550Z,14.13
2022-11-08T14:18:00.623Z,14.01
2022-11-08T14:20:42.449Z,13.93
2022-11-08T14:23:19.431Z,13.86
2022-11-08T14:26:01.725Z,13.80
2022-11-08T14:28:36.197Z,13.73
2022-11-08T14:31:08.285Z,13.66
2022-11-08T14:33:42.693Z,13.53
2022-11-08T14:36:17.195Z,13.35
2022-11-08T14:39:05.769Z,13.21
2022-11-08T14:41:34.066Z,12.95
2022-11-08T14:44:03.854Z,12.85
2022-11-08T14:46:40.001Z,12.65
2022-11-08T14:49:22.302Z,12.60
2022-11-08T14:52:22.498Z,12.39
2022-11-08T14:55:05.841Z,12.06
2022-11-08T14:57:40.005Z,12.03
2022-11-08T15:00:15.082Z,12.00
2022-11-08T15:03:05.477Z,11.82
2022-11-08T15:05:42.422Z,11.63
2022-11-08T15:08:51.215Z,11.53
2022-11-08T15:11:32.578Z,11.46
2022-11-08T15:14:17.070Z,11.38
2022-11-08T15:16:49.802Z,11.32
2022-11-08T15:19:30.324Z,11.23
2022-11-08T15:22:23.511Z,11.19
2022-11-08T15:25:22.108Z,11.18
2022-11-08T15:27:56.291Z,11.39
2022-11-08T15:30:44.319Z,11.44
2022-11-08T15:33:44.336Z,11.43
2022-11-08T15:36:17.842Z,11.36
2022-11-08T15:38:49.745Z,11.23
2022-11-08T15:41:40.577Z,11.13
2022-11-08T15:44:23.520Z,11.04
2022-11-08T15:46:53.184Z,11.00
2022-11-08T15:49:30.029Z,10.99
2022-11-08T15:52:00.977Z,10.97
2022-11-08T15:54:28.362Z,10.85
2022-11-08T15:56:56.816Z,10.92
2022-11-08T15:59:29.858Z,10.95
2022-11-08T16:02:00.523Z,10.93
2022-11-08T16:04:29.760Z,11.09
2022-11-08T16:06:58.250Z,11.16
2022-11-08T16:09:25.582Z,11.10
2022-11-08T16:11:53.185Z,11.20
2022-11-08T16:14:24.357Z,11.27
2022-11-08T16:16:51.802Z,11.29
2022-11-08T16:19:23.452Z,11.00
2022-11-08T16:21:52.127Z,10.89
2022-11-08T16:24:19.380Z,10.74
2022-11-08T16:26:48.829Z,10.70
2022-11-08T16:29:24.510Z,10.45
2022-11-08T16:31:52.664Z,10.52
2022-11-08T16:34:20.108Z,10.56
2022-11-08T16:36:49.383Z,10.48
2022-11-08T16:39:21.424Z,10.33
2022-11-08T16:41:48.806Z,10.27
2022-11-08T16:44:16.071Z,10.23
2022-11-08T16:46:43.356Z,10.09
2022-11-08T16:49:24.169Z,9.92
2022-11-08T16:51:51.526Z,9.96
2022-11-08T16:54:25.032Z,10.11
2022-11-08T16:56:59.453Z,10.09
2022-11-08T16:59:40.114Z,10.02
2022-11-08T17:02:39.111Z,9.84
2022-11-08T17:05:14.526Z,9.74
2022-11-08T17:07:42.558Z,9.78
2022-11-08T17:10:28.005Z,9.78
2022-11-08T17:12:56.053Z,9.73
2022-11-08T17:15:27.264Z,9.79
2022-11-08T17:17:57.067Z,9.76
2022-11-08T17:20:26.069Z,9.54
2022-11-08T17:22:55.006Z,9.46
2022-11-08T17:25:24.486Z,9.47
2022-11-08T17:27:53.129Z,9.37
2022-11-08T17:30:26.349Z,9.33
2022-11-08T17:32:54.829Z,9.31
2022-11-08T17:35:22.277Z,9.30
2022-11-08T17:37:49.483Z,9.30
2022-11-08T17:40:17.017Z,9.25
2022-11-08T17:42:45.398Z,9.16
2022-11-08T17:45:13.314Z,9.20
2022-11-08T17:47:41.231Z,9.39
2022-11-08T17:50:10.207Z,9.46
2022-11-08T17:52:37.950Z,9.34
2022-11-08T17:55:06.954Z,9.24
2022-11-08T17:57:34.231Z,9.19
2022-11-08T18:00:02.352Z,9.20
2022-11-08T18:02:39.683Z,9.25
2022-11-08T18:05:07.427Z,9.20
2022-11-08T18:07:34.626Z,9.20
2022-11-08T18:10:02.840Z,9.21
2022-11-08T18:12:31.801Z,9.26
2022-11-08T18:14:59.105Z,9.18
2022-11-08T18:17:27.105Z,9.04
2022-11-08T18:19:54.362Z,9.02
2022-11-08T18:22:21.756Z,9.33
2022-11-08T18:24:50.190Z,9.34
2022-11-08T18:27:17.838Z,9.32
2022-11-08T18:29:45.095Z,9.19
2022-11-08T18:32:12.446Z,9.00
2022-11-08T18:34:39.638Z,8.85
2022-11-08T18:37:06.859Z,8.92
2022-11-08T18:39:34.176Z,8.85
2022-11-08T18:42:01.493Z,8.84
2022-11-08T18:44:28.720Z,8.78
2022-11-08T18:46:55.940Z,8.75
2022-11-08T18:49:23.206Z,8.85
2022-11-08T18:51:52.192Z,8.67
2022-11-08T18:54:20.394Z,8.51
2022-11-08T18:56:47.862Z,8.50
2022-11-08T18:59:15.198Z,8.44
2022-11-08T19:01:42.509Z,8.33
2022-11-08T19:04:09.965Z,8.45
2022-11-08T19:06:37.401Z,8.54
2022-11-08T19:09:05.154Z,8.38
2022-11-08T19:11:33.668Z,8.22
2022-11-08T19:14:02.214Z,8.24
2022-11-08T19:16:29.952Z,8.20
2022-11-08T19:18:57.305Z,8.11
2022-11-08T19:21:27.808Z,8.00
2022-11-08T19:23:59.896Z,7.96
2022-11-08T19:26:29.340Z,7.99
2022-11-08T19:28:58.395Z,7.92
2022-11-08T19:31:26.549Z,7.74
2022-11-08T19:33:55.264Z,7.79
2022-11-08T19:36:28.906Z,7.79
2022-11-08T19:38:58.029Z,7.64
2022-11-08T19:41:28.488Z,7.68
2022-11-08T19:43:55.924Z,7.66
2022-11-08T19:46:28.861Z,7.79
2022-11-08T19:48:59.019Z,7.85
2022-11-08T19:51:30.263Z,7.77
2022-11-08T19:54:06.169Z,7.69
2022-11-08T19:59:25.670Z,7.55
2022-11-08T20:01:53.174Z,7.51
2022-11-08T20:04:20.803Z,7.52
2022-11-08T20:06:48.215Z,7.39
2022-11-08T20:09:15.514Z,7.34
2022-11-08T20:11:46.338Z,7.40
2022-11-08T20:14:14.332Z,7.40
2022-11-08T20:16:44.309Z,7.44
2022-11-08T20:19:16.654Z,7.41
2022-11-08T20:21:46.247Z,7.37
2022-11-08T20:24:15.172Z,7.36
2022-11-08T20:26:43.382Z,7.36
2022-11-08T20:29:11.291Z,7.44
2022-11-08T20:31:39.215Z,7.46
2022-11-08T20:34:10.344Z,7.63
2022-11-08T20:36:38.824Z,7.80
2022-11-08T20:39:07.929Z,7.82
2022-11-08T20:41:37.831Z,7.84
2022-11-08T20:44:06.935Z,8.00
2022-11-08T20:46:35.946Z,7.99
2022-11-08T20:49:04.896Z,8.39
2022-11-08T20:51:32.888Z,8.68
2022-11-08T20:54:01.401Z,8.92
2022-11-08T20:56:29.403Z,9.05
2022-11-08T20:58:57.248Z,9.24
2022-11-08T21:01:29.447Z,9.31
2022-11-08T21:03:57.347Z,9.16
2022-11-08T21:06:27.371Z,8.97
2022-11-08T21:09:01.499Z,8.81
2022-11-08T21:11:30.873Z,8.71
2022-11-08T21:13:58.545Z,8.72
2022-11-08T21:16:31.555Z,8.61
2022-11-08T21:19:00.788Z,8.55
2022-11-08T21:21:28.758Z,8.59
2022-11-08T21:23:56.053Z,8.51
2022-11-08T21:26:24.014Z,8.43
2022-11-08T21:28:52.353Z,8.26
2022-11-08T21:31:19.687Z,8.18
2022-11-08T21:33:47.049Z,7.96
2022-11-08T21:36:15.459Z,8.05
2022-11-08T21:38:42.675Z,8.47
2022-11-08T21:41:11.381Z,8.64
2022-11-08T21:43:44.025Z,8.67
2022-11-08T21:46:23.798Z,8.63
2022-11-08T21:48:58.507Z,8.70
2022-11-08T21:51:26.836Z,8.54
2022-11-08T21:53:57.152Z,8.35
2022-11-08T21:56:29.091Z,8.38
2022-11-08T21:58:56.421Z,8.36
2022-11-08T22:01:29.621Z,8.29
2022-11-08T22:03:58.935Z,8.26
2022-11-08T22:06:26.800Z,8.16
2022-11-08T22:08:54.375Z,8.10
2022-11-08T22:11:21.753Z,8.33
2022-11-08T22:13:49.078Z,8.37
2022-11-08T22:16:16.495Z,8.40
2022-11-08T22:19:04.776Z,8.44
2022-11-08T22:21:41.296Z,8.37
2022-11-08T22:24:22.593Z,8.30
2022-11-08T22:26:51.959Z,8.24
2022-11-08T22:29:19.632Z,8.11
2022-11-08T22:31:47.668Z,8.02
2022-11-08T22:34:15.624Z,7.87
2022-11-08T22:36:45.690Z,7.83
2022-11-08T22:39:20.078Z,7.71
2022-11-08T22:41:51.092Z,7.60
2022-11-08T22:44:19.527Z,7.50
2022-11-08T22:46:47.962Z,7.37
2022-11-08T22:49:16.530Z,7.40
2022-11-08T22:51:44.586Z,7.46
2022-11-08T22:54:12.380Z,7.28
2022-11-08T22:56:40.464Z,7.30
2022-11-08T22:59:08.462Z,7.40
2022-11-08T23:01:35.831Z,7.28
2022-11-08T23:04:03.188Z,7.29
2022-11-08T23:06:30.993Z,7.28
2022-11-08T23:08:58.579Z,7.29
2022-11-08T23:11:44.417Z,7.20
2022-11-08T23:14:36.458Z,7.24
2022-11-08T23:17:06.059Z,7.10
2022-11-08T23:19:51.757Z,7.19
2022-11-08T23:22:59.140Z,7.15
2022-11-08T23:25:26.420Z,7.08
2022-11-08T23:28:11.938Z,7.07
2022-11-08T23:30:58.647Z,7.10
2022-11-08T23:33:25.947Z,7.13
2022-11-08T23:36:11.849Z,7.24
2022-11-08T23:38:39.332Z,7.28
2022-11-08T23:41:24.953Z,7.31
2022-11-08T23:44:24.354Z,7.26
2022-11-08T23:46:54.369Z,7.25
2022-11-08T23:49:22.327Z,7.24
2022-11-08T23:51:50.001Z,7.19
2022-11-08T23:54:17.423Z,7.13
2022-11-08T23:56:45.642Z,7.10
2022-11-08T23:59:14.299Z,7.01
